19MA weather

Waine Heliport
Nantucket, Massachusetts, United States

Public forecast

Using degrees Fahrenheit for public forecast. Weather courtesy of forecast.io.

Closest aviation weather report (METAR) to Waine Heliport

Closest report is Nantucket Memorial Airport, 4.5 nm (8.3 km) ESE. Retrieved 2020/04/08 22:53 UTC (39 minutes ago):

KACK 082253Z 01008KT 10SM OVC050 08/05 A2961 RMK AO2 SLP028 T00780050

Closest aviation forecast (TAF) to Waine Heliport

Closest forecast is Nantucket Memorial Airport, 4.5 nm (8.3 km) ESE. Retrieved 2020/04/08 18:36 UTC (5 hours ago):

TAF KACK 081734Z 0818/0918 02011G18KT P6SM OVC040 FM082100 01010G17KT P6SM BKN025 FM082300 02008KT P6SM BKN045 FM091100 15010KT 4SM BR BKN040 FM091300 15013G20KT P6SM BKN040 FM091600 15019G27KT P6SM VCSH OVC030